Time;durP1;ratioP1;P1;durP2;ratioP2;P2;SDS_P1;SDS_P2;PMS_P1;PMS_P2;Temp;Humidity;BMP_temperature;BMP_pressure;BME280_temperature;BME280_humidity;BME280_pressure;Samples;Min_cycle;Max_cycle;Signal;HPM_P1;HPM_P2
2021/08/06 00:00:42;;;;;;;1.8;1.7;;;;;;;15.6;99.66016;94571.51;;;;
2021/08/06 00:01:42;;;;;;;1.8;1.7;;;;;;;15.6;99.66016;94571.51;;;;
2021/08/06 00:02:43;;;;;;;1.7;1.6;;;;;;;15.71;99.64063;94568.58;;;;
2021/08/06 00:03:44;;;;;;;1.7;1.6;;;;;;;15.71;99.64063;94568.58;;;;
2021/08/06 00:04:45;;;;;;;1.7;1.6;;;;;;;15.71;99.64063;94568.58;;;;
2021/08/06 00:05:45;;;;;;;1.7;1.6;;;;;;;15.71;99.64063;94568.58;;;;
2021/08/06 00:06:47;;;;;;;1.7;1.6;;;;;;;15.71;99.64063;94568.58;;;;
2021/08/06 00:07:47;;;;;;;1.7;1.6;;;;;;;15.71;99.64063;94568.58;;;;
2021/08/06 00:08:48;;;;;;;1.7;1.6;;;;;;;15.71;99.64063;94568.58;;;;
2021/08/06 00:09:48;;;;;;;1.7;1.6;;;;;;;15.71;99.64063;94568.58;;;;
2021/08/06 00:10:49;;;;;;;1.7;1.6;;;;;;;15.71;99.64063;94568.58;;;;
2021/08/06 00:11:51;;;;;;;1.7;1.6;;;;;;;15.71;99.64063;94568.58;;;;
2021/08/06 00:12:52;;;;;;;1.7;1.6;;;;;;;15.71;99.64063;94568.58;;;;
2021/08/06 00:13:52;;;;;;;1.8;1.7;;;;;;;15.79;99.51758;94557.62;;;;
2021/08/06 00:14:53;;;;;;;1.8;1.7;;;;;;;15.79;99.51758;94557.62;;;;
2021/08/06 00:15:54;;;;;;;1.8;1.7;;;;;;;15.79;99.51758;94557.62;;;;
2021/08/06 00:16:55;;;;;;;1.8;1.7;;;;;;;15.79;99.51758;94557.62;;;;
2021/08/06 00:17:55;;;;;;;1.8;1.7;;;;;;;15.79;99.51758;94557.62;;;;
2021/08/06 00:18:56;;;;;;;1.8;1.7;;;;;;;15.79;99.51758;94557.62;;;;
2021/08/06 00:19:56;;;;;;;1.8;1.7;;;;;;;15.79;99.51758;94557.62;;;;
2021/08/06 00:20:57;;;;;;;1.8;1.7;;;;;;;15.79;99.51758;94557.62;;;;
2021/08/06 00:21:57;;;;;;;1.8;1.7;;;;;;;15.79;99.51758;94557.62;;;;
2021/08/06 00:22:58;;;;;;;1.8;1.7;;;;;;;15.79;99.51758;94557.62;;;;
2021/08/06 00:23:59;;;;;;;2.75;1.8;;;;;;;15.8;99.54102;94551.08;;;;
2021/08/06 00:24:59;;;;;;;2.75;1.8;;;;;;;15.8;99.54102;94551.08;;;;
2021/08/06 00:26:00;;;;;;;2.75;1.8;;;;;;;15.8;99.54102;94551.08;;;;
2021/08/06 00:27:00;;;;;;;2.75;1.8;;;;;;;15.8;99.54102;94551.08;;;;
2021/08/06 00:28:01;;;;;;;2.75;1.8;;;;;;;15.8;99.54102;94551.08;;;;
2021/08/06 00:29:02;;;;;;;2.75;1.8;;;;;;;15.8;99.54102;94551.08;;;;
2021/08/06 00:30:03;;;;;;;2.75;1.8;;;;;;;15.8;99.54102;94551.08;;;;
2021/08/06 00:31:04;;;;;;;2.75;1.8;;;;;;;15.8;99.54102;94551.08;;;;
2021/08/06 00:32:05;;;;;;;2.75;1.8;;;;;;;15.8;99.54102;94551.08;;;;
2021/08/06 00:33:06;;;;;;;2.75;1.8;;;;;;;15.8;99.54102;94551.08;;;;
2021/08/06 00:34:07;;;;;;;2.75;1.8;;;;;;;15.8;99.54102;94551.08;;;;
2021/08/06 00:35:08;;;;;;;1.95;1.7;;;;;;;15.77;99.77148;94544.85;;;;
2021/08/06 00:36:09;;;;;;;1.95;1.7;;;;;;;15.77;99.77148;94544.85;;;;
2021/08/06 00:37:09;;;;;;;1.95;1.7;;;;;;;15.77;99.77148;94544.85;;;;
2021/08/06 00:38:10;;;;;;;1.95;1.7;;;;;;;15.77;99.77148;94544.85;;;;
2021/08/06 00:39:11;;;;;;;1.95;1.7;;;;;;;15.77;99.77148;94544.85;;;;
2021/08/06 00:40:11;;;;;;;1.95;1.7;;;;;;;15.77;99.77148;94544.85;;;;
2021/08/06 00:41:12;;;;;;;1.95;1.7;;;;;;;15.77;99.77148;94544.85;;;;
2021/08/06 00:42:13;;;;;;;1.95;1.7;;;;;;;15.77;99.77148;94544.85;;;;
2021/08/06 00:43:14;;;;;;;1.95;1.7;;;;;;;15.77;99.77148;94544.85;;;;
2021/08/06 00:44:14;;;;;;;1.95;1.7;;;;;;;15.77;99.77148;94544.85;;;;
2021/08/06 00:45:15;;;;;;;2;1.6;;;;;;;15.63;99.88965;94539.64;;;;
2021/08/06 00:46:16;;;;;;;2;1.6;;;;;;;15.63;99.88965;94539.64;;;;
2021/08/06 00:47:17;;;;;;;2;1.6;;;;;;;15.63;99.88965;94539.64;;;;
2021/08/06 00:48:17;;;;;;;2;1.6;;;;;;;15.63;99.88965;94539.64;;;;
2021/08/06 00:49:18;;;;;;;2;1.6;;;;;;;15.63;99.88965;94539.64;;;;
2021/08/06 00:50:19;;;;;;;2;1.6;;;;;;;15.63;99.88965;94539.64;;;;
2021/08/06 00:51:20;;;;;;;2;1.6;;;;;;;15.63;99.88965;94539.64;;;;
2021/08/06 00:52:21;;;;;;;2;1.6;;;;;;;15.63;99.88965;94539.64;;;;
2021/08/06 00:53:22;;;;;;;2;1.6;;;;;;;15.63;99.88965;94539.64;;;;
2021/08/06 00:54:23;;;;;;;2;1.6;;;;;;;15.63;99.88965;94539.64;;;;
2021/08/06 00:55:24;;;;;;;2;1.6;;;;;;;15.63;99.88965;94539.64;;;;
2021/08/06 00:56:25;;;;;;;2.8;1.9;;;;;;;15.49;100;94543.17;;;;
2021/08/06 00:57:25;;;;;;;2.8;1.9;;;;;;;15.49;100;94543.17;;;;
2021/08/06 00:58:26;;;;;;;2.8;1.9;;;;;;;15.49;100;94543.17;;;;
2021/08/06 00:59:26;;;;;;;2.8;1.9;;;;;;;15.49;100;94543.17;;;;
2021/08/06 01:00:27;;;;;;;2.8;1.9;;;;;;;15.49;100;94543.17;;;;
2021/08/06 01:01:27;;;;;;;2.8;1.9;;;;;;;15.49;100;94543.17;;;;
2021/08/06 01:02:32;;;;;;;2.8;1.9;;;;;;;15.49;100;94543.17;;;;
2021/08/06 01:03:46;;;;;;;2.8;1.9;;;;;;;15.49;100;94543.17;;;;
2021/08/06 01:04:58;;;;;;;2.8;1.9;;;;;;;15.49;100;94543.17;;;;
2021/08/06 01:06:07;;;;;;;2.8;1.9;;;;;;;15.49;100;94543.17;;;;
2021/08/06 01:07:12;;;;;;;2;1.8;;;;;;;15.3;100;94531.45;;;;
2021/08/06 01:08:22;;;;;;;2;1.8;;;;;;;15.3;100;94531.45;;;;
2021/08/06 01:09:33;;;;;;;2;1.8;;;;;;;15.3;100;94531.45;;;;
2021/08/06 01:10:41;;;;;;;2;1.8;;;;;;;15.3;100;94531.45;;;;
2021/08/06 01:11:46;;;;;;;2;1.8;;;;;;;15.3;100;94531.45;;;;
2021/08/06 01:12:52;;;;;;;2;1.8;;;;;;;15.3;100;94531.45;;;;
2021/08/06 01:13:55;;;;;;;2;1.8;;;;;;;15.3;100;94531.45;;;;
2021/08/06 01:14:57;;;;;;;2;1.8;;;;;;;15.3;100;94531.45;;;;
2021/08/06 01:16:01;;;;;;;2;1.8;;;;;;;15.3;100;94531.45;;;;
2021/08/06 01:17:04;;;;;;;1.95;1.85;;;;;;;14.94;100;94535.78;;;;
2021/08/06 01:18:07;;;;;;;1.95;1.85;;;;;;;14.94;100;94535.78;;;;
2021/08/06 01:19:11;;;;;;;1.95;1.85;;;;;;;14.94;100;94535.78;;;;
2021/08/06 01:20:16;;;;;;;1.95;1.85;;;;;;;14.94;100;94535.78;;;;
2021/08/06 01:21:20;;;;;;;1.95;1.85;;;;;;;14.94;100;94535.78;;;;
2021/08/06 01:22:24;;;;;;;1.95;1.85;;;;;;;14.94;100;94535.78;;;;
2021/08/06 01:23:30;;;;;;;1.95;1.85;;;;;;;14.94;100;94535.78;;;;
2021/08/06 01:24:34;;;;;;;1.95;1.85;;;;;;;14.94;100;94535.78;;;;
2021/08/06 01:25:39;;;;;;;1.95;1.85;;;;;;;14.94;100;94535.78;;;;
2021/08/06 01:26:50;;;;;;;1.95;1.85;;;;;;;14.94;100;94535.78;;;;
2021/08/06 01:27:51;;;;;;;2.1;1.9;;;;;;;14.53;100;94532.19;;;;
2021/08/06 01:28:52;;;;;;;2.1;1.9;;;;;;;14.53;100;94532.19;;;;
2021/08/06 01:29:53;;;;;;;2.1;1.9;;;;;;;14.53;100;94532.19;;;;
2021/08/06 01:30:53;;;;;;;2.1;1.9;;;;;;;14.53;100;94532.19;;;;
2021/08/06 01:31:55;;;;;;;2.1;1.9;;;;;;;14.53;100;94532.19;;;;
2021/08/06 01:32:55;;;;;;;2.1;1.9;;;;;;;14.53;100;94532.19;;;;
2021/08/06 01:33:57;;;;;;;2.1;1.9;;;;;;;14.53;100;94532.19;;;;
2021/08/06 01:34:57;;;;;;;2.1;1.9;;;;;;;14.53;100;94532.19;;;;
2021/08/06 01:35:58;;;;;;;2.1;1.9;;;;;;;14.53;100;94532.19;;;;
2021/08/06 01:36:59;;;;;;;2.1;1.9;;;;;;;14.53;100;94532.19;;;;
2021/08/06 01:37:59;;;;;;;2.1;1.9;;;;;;;14.53;100;94532.19;;;;
2021/08/06 01:39:01;;;;;;;2.4;2.05;;;;;;;14.14;100;94526.2;;;;
2021/08/06 01:40:02;;;;;;;2.4;2.05;;;;;;;14.14;100;94526.2;;;;
2021/08/06 01:41:07;;;;;;;2.4;2.05;;;;;;;14.14;100;94526.2;;;;
2021/08/06 01:42:17;;;;;;;2.4;2.05;;;;;;;14.14;100;94526.2;;;;
2021/08/06 01:43:29;;;;;;;2.4;2.05;;;;;;;14.14;100;94526.2;;;;
2021/08/06 01:44:37;;;;;;;2.4;2.05;;;;;;;14.14;100;94526.2;;;;
2021/08/06 01:45:47;;;;;;;2.4;2.05;;;;;;;14.14;100;94526.2;;;;
2021/08/06 01:46:54;;;;;;;2.4;2.05;;;;;;;14.14;100;94526.2;;;;
2021/08/06 01:47:59;;;;;;;2.4;2.05;;;;;;;14.14;100;94526.2;;;;
2021/08/06 01:49:00;;;;;;;2.900001;2.1;;;;;;;13.92;100;94522.46;;;;
2021/08/06 01:50:10;;;;;;;2.900001;2.1;;;;;;;13.92;100;94522.46;;;;
2021/08/06 01:51:13;;;;;;;2.900001;2.1;;;;;;;13.92;100;94522.46;;;;
2021/08/06 01:52:15;;;;;;;2.900001;2.1;;;;;;;13.92;100;94522.46;;;;
2021/08/06 01:53:21;;;;;;;2.900001;2.1;;;;;;;13.92;100;94522.46;;;;
2021/08/06 01:54:25;;;;;;;2.900001;2.1;;;;;;;13.92;100;94522.46;;;;
2021/08/06 01:55:29;;;;;;;2.900001;2.1;;;;;;;13.92;100;94522.46;;;;
2021/08/06 01:56:33;;;;;;;2.900001;2.1;;;;;;;13.92;100;94522.46;;;;
2021/08/06 01:57:37;;;;;;;2.900001;2.1;;;;;;;13.92;100;94522.46;;;;
2021/08/06 01:58:39;;;;;;;2.900001;2.1;;;;;;;13.92;100;94522.46;;;;
2021/08/06 01:59:40;;;;;;;2.1;1.8;;;;;;;13.9;100;94508.76;;;;
2021/08/06 02:00:42;;;;;;;2.1;1.8;;;;;;;13.9;100;94508.76;;;;
2021/08/06 02:01:44;;;;;;;2.1;1.8;;;;;;;13.9;100;94508.76;;;;
2021/08/06 02:02:45;;;;;;;2.1;1.8;;;;;;;13.9;100;94508.76;;;;
2021/08/06 02:03:45;;;;;;;2.1;1.8;;;;;;;13.9;100;94508.76;;;;
2021/08/06 02:04:46;;;;;;;2.1;1.8;;;;;;;13.9;100;94508.76;;;;
2021/08/06 02:05:47;;;;;;;2.1;1.8;;;;;;;13.9;100;94508.76;;;;
2021/08/06 02:06:49;;;;;;;2.1;1.8;;;;;;;13.9;100;94508.76;;;;
2021/08/06 02:07:50;;;;;;;2.1;1.8;;;;;;;13.9;100;94508.76;;;;
2021/08/06 02:08:50;;;;;;;2.1;1.8;;;;;;;13.9;100;94508.76;;;;
2021/08/06 02:09:51;;;;;;;2.1;1.8;;;;;;;13.9;100;94508.76;;;;
2021/08/06 02:10:53;;;;;;;2.25;1.9;;;;;;;13.78;100;94496.17;;;;
2021/08/06 02:11:54;;;;;;;2.25;1.9;;;;;;;13.78;100;94496.17;;;;
2021/08/06 02:12:54;;;;;;;2.25;1.9;;;;;;;13.78;100;94496.17;;;;
2021/08/06 02:13:55;;;;;;;2.25;1.9;;;;;;;13.78;100;94496.17;;;;
2021/08/06 02:14:55;;;;;;;2.25;1.9;;;;;;;13.78;100;94496.17;;;;
2021/08/06 02:15:56;;;;;;;2.25;1.9;;;;;;;13.78;100;94496.17;;;;
2021/08/06 02:16:57;;;;;;;2.25;1.9;;;;;;;13.78;100;94496.17;;;;
2021/08/06 02:17:58;;;;;;;2.25;1.9;;;;;;;13.78;100;94496.17;;;;
2021/08/06 02:18:59;;;;;;;2.25;1.9;;;;;;;13.78;100;94496.17;;;;
2021/08/06 02:20:01;;;;;;;2.25;1.9;;;;;;;13.78;100;94496.17;;;;
2021/08/06 02:21:02;;;;;;;2.2;1.95;;;;;;;13.6;100;94493.46;;;;
2021/08/06 02:22:07;;;;;;;2.2;1.95;;;;;;;13.6;100;94493.46;;;;
2021/08/06 02:23:10;;;;;;;2.2;1.95;;;;;;;13.6;100;94493.46;;;;
2021/08/06 02:24:11;;;;;;;2.2;1.95;;;;;;;13.6;100;94493.46;;;;
2021/08/06 02:25:13;;;;;;;2.2;1.95;;;;;;;13.6;100;94493.46;;;;
2021/08/06 02:26:17;;;;;;;2.2;1.95;;;;;;;13.6;100;94493.46;;;;
2021/08/06 02:27:19;;;;;;;2.2;1.95;;;;;;;13.6;100;94493.46;;;;
2021/08/06 02:28:21;;;;;;;2.2;1.95;;;;;;;13.6;100;94493.46;;;;
2021/08/06 02:29:22;;;;;;;2.2;1.95;;;;;;;13.6;100;94493.46;;;;
2021/08/06 02:30:26;;;;;;;2.2;1.95;;;;;;;13.6;100;94493.46;;;;
2021/08/06 02:31:30;;;;;;;2.2;1.95;;;;;;;13.6;100;94493.46;;;;
2021/08/06 02:32:32;;;;;;;2.4;1.9;;;;;;;13.41;100;94489.17;;;;
2021/08/06 02:33:33;;;;;;;2.4;1.9;;;;;;;13.41;100;94489.17;;;;
2021/08/06 02:34:34;;;;;;;2.4;1.9;;;;;;;13.41;100;94489.17;;;;
2021/08/06 02:35:35;;;;;;;2.4;1.9;;;;;;;13.41;100;94489.17;;;;
2021/08/06 02:36:35;;;;;;;2.4;1.9;;;;;;;13.41;100;94489.17;;;;
2021/08/06 02:37:38;;;;;;;2.4;1.9;;;;;;;13.41;100;94489.17;;;;
2021/08/06 02:38:39;;;;;;;2.4;1.9;;;;;;;13.41;100;94489.17;;;;
2021/08/06 02:39:40;;;;;;;2.4;1.9;;;;;;;13.41;100;94489.17;;;;
2021/08/06 02:40:41;;;;;;;2.4;1.9;;;;;;;13.41;100;94489.17;;;;
2021/08/06 02:41:43;;;;;;;2.4;1.9;;;;;;;13.41;100;94489.17;;;;
2021/08/06 02:42:44;;;;;;;2;1.9;;;;;;;13.33;100;94484.43;;;;
2021/08/06 02:43:45;;;;;;;2;1.9;;;;;;;13.33;100;94484.43;;;;
2021/08/06 02:44:46;;;;;;;2;1.9;;;;;;;13.33;100;94484.43;;;;
2021/08/06 02:45:48;;;;;;;2;1.9;;;;;;;13.33;100;94484.43;;;;
2021/08/06 02:46:49;;;;;;;2;1.9;;;;;;;13.33;100;94484.43;;;;
2021/08/06 02:47:50;;;;;;;2;1.9;;;;;;;13.33;100;94484.43;;;;
2021/08/06 02:48:51;;;;;;;2;1.9;;;;;;;13.33;100;94484.43;;;;
2021/08/06 02:49:51;;;;;;;2;1.9;;;;;;;13.33;100;94484.43;;;;
2021/08/06 02:50:52;;;;;;;2;1.9;;;;;;;13.33;100;94484.43;;;;
2021/08/06 02:51:53;;;;;;;2;1.9;;;;;;;13.33;100;94484.43;;;;
2021/08/06 02:52:53;;;;;;;2;1.9;;;;;;;13.33;100;94484.43;;;;
2021/08/06 02:53:54;;;;;;;2.1;2;;;;;;;13.39;100;94481.43;;;;
2021/08/06 02:54:54;;;;;;;2.1;2;;;;;;;13.39;100;94481.43;;;;
2021/08/06 02:55:55;;;;;;;2.1;2;;;;;;;13.39;100;94481.43;;;;
2021/08/06 02:56:55;;;;;;;2.1;2;;;;;;;13.39;100;94481.43;;;;
2021/08/06 02:57:56;;;;;;;2.1;2;;;;;;;13.39;100;94481.43;;;;
2021/08/06 02:58:57;;;;;;;2.1;2;;;;;;;13.39;100;94481.43;;;;
2021/08/06 02:59:57;;;;;;;2.1;2;;;;;;;13.39;100;94481.43;;;;
2021/08/06 03:00:58;;;;;;;2.1;2;;;;;;;13.39;100;94481.43;;;;
2021/08/06 03:01:58;;;;;;;2.1;2;;;;;;;13.39;100;94481.43;;;;
2021/08/06 03:02:59;;;;;;;2.1;2;;;;;;;13.39;100;94481.43;;;;
2021/08/06 03:03:59;;;;;;;2.15;1.75;;;;;;;13.51;100;94486.02;;;;
2021/08/06 03:05:00;;;;;;;2.15;1.75;;;;;;;13.51;100;94486.02;;;;
2021/08/06 03:06:00;;;;;;;2.15;1.75;;;;;;;13.51;100;94486.02;;;;
2021/08/06 03:07:01;;;;;;;2.15;1.75;;;;;;;13.51;100;94486.02;;;;
2021/08/06 03:08:02;;;;;;;2.15;1.75;;;;;;;13.51;100;94486.02;;;;
2021/08/06 03:09:03;;;;;;;2.15;1.75;;;;;;;13.51;100;94486.02;;;;
2021/08/06 03:10:03;;;;;;;2.15;1.75;;;;;;;13.51;100;94486.02;;;;
2021/08/06 03:11:05;;;;;;;2.15;1.75;;;;;;;13.51;100;94486.02;;;;
2021/08/06 03:12:06;;;;;;;2.15;1.75;;;;;;;13.51;100;94486.02;;;;
2021/08/06 03:13:07;;;;;;;2.15;1.75;;;;;;;13.51;100;94486.02;;;;
2021/08/06 03:14:07;;;;;;;2.15;1.75;;;;;;;13.51;100;94486.02;;;;
2021/08/06 03:15:08;;;;;;;2;1.7;;;;;;;13.56;100;94493.19;;;;
2021/08/06 03:16:10;;;;;;;2;1.7;;;;;;;13.56;100;94493.19;;;;
2021/08/06 03:17:10;;;;;;;2;1.7;;;;;;;13.56;100;94493.19;;;;
2021/08/06 03:18:11;;;;;;;2;1.7;;;;;;;13.56;100;94493.19;;;;
2021/08/06 03:19:12;;;;;;;2;1.7;;;;;;;13.56;100;94493.19;;;;
2021/08/06 03:20:12;;;;;;;2;1.7;;;;;;;13.56;100;94493.19;;;;
2021/08/06 03:21:16;;;;;;;2;1.7;;;;;;;13.56;100;94493.19;;;;
2021/08/06 03:22:17;;;;;;;2;1.7;;;;;;;13.56;100;94493.19;;;;
2021/08/06 03:23:17;;;;;;;2;1.7;;;;;;;13.56;100;94493.19;;;;
2021/08/06 03:24:18;;;;;;;2;1.7;;;;;;;13.56;100;94493.19;;;;
2021/08/06 03:25:18;;;;;;;2;1.7;;;;;;;13.56;100;94493.19;;;;
2021/08/06 03:26:19;;;;;;;2;1.7;;;;;;;13.56;100;94493.19;;;;
2021/08/06 03:27:19;;;;;;;2;1.7;;;;;;;13.56;100;94493.19;;;;
2021/08/06 03:28:20;;;;;;;2;1.7;;;;;;;13.56;100;94493.19;;;;
2021/08/06 03:29:21;;;;;;;2;1.7;;;;;;;13.56;100;94493.19;;;;
2021/08/06 03:30:21;;;;;;;2;1.7;;;;;;;13.56;100;94493.19;;;;
2021/08/06 03:31:22;;;;;;;2;1.7;;;;;;;13.56;100;94493.19;;;;
2021/08/06 03:32:22;;;;;;;2;1.7;;;;;;;13.56;100;94493.19;;;;
2021/08/06 03:33:23;;;;;;;2;1.7;;;;;;;13.56;100;94493.19;;;;
2021/08/06 03:34:23;;;;;;;2;1.7;;;;;;;13.56;100;94493.19;;;;
2021/08/06 03:35:24;;;;;;;2;1.7;;;;;;;13.56;100;94493.19;;;;
2021/08/06 03:36:25;;;;;;;2.5;2;;;;;;;13.56;100;94500.13;;;;
2021/08/06 03:37:26;;;;;;;2.5;2;;;;;;;13.56;100;94500.13;;;;
2021/08/06 03:38:26;;;;;;;2.5;2;;;;;;;13.56;100;94500.13;;;;
2021/08/06 03:39:27;;;;;;;2.5;2;;;;;;;13.56;100;94500.13;;;;
2021/08/06 03:40:27;;;;;;;2.5;2;;;;;;;13.56;100;94500.13;;;;
2021/08/06 03:41:29;;;;;;;2.5;2;;;;;;;13.56;100;94500.13;;;;
2021/08/06 03:42:29;;;;;;;2.5;2;;;;;;;13.56;100;94500.13;;;;
2021/08/06 03:43:30;;;;;;;2.5;2;;;;;;;13.56;100;94500.13;;;;
2021/08/06 03:44:30;;;;;;;2.5;2;;;;;;;13.56;100;94500.13;;;;
2021/08/06 03:45:31;;;;;;;2.5;2;;;;;;;13.56;100;94500.13;;;;
2021/08/06 03:46:31;;;;;;;1.9;1.8;;;;;;;13.63;100;94500.67;;;;
2021/08/06 03:47:32;;;;;;;1.9;1.8;;;;;;;13.63;100;94500.67;;;;
2021/08/06 03:48:34;;;;;;;1.9;1.8;;;;;;;13.63;100;94500.67;;;;
2021/08/06 03:49:34;;;;;;;1.9;1.8;;;;;;;13.63;100;94500.67;;;;
2021/08/06 03:50:35;;;;;;;1.9;1.8;;;;;;;13.63;100;94500.67;;;;
2021/08/06 03:51:36;;;;;;;1.9;1.8;;;;;;;13.63;100;94500.67;;;;
2021/08/06 03:52:37;;;;;;;1.9;1.8;;;;;;;13.63;100;94500.67;;;;
2021/08/06 03:53:37;;;;;;;1.9;1.8;;;;;;;13.63;100;94500.67;;;;
2021/08/06 03:54:38;;;;;;;1.9;1.8;;;;;;;13.63;100;94500.67;;;;
2021/08/06 03:55:39;;;;;;;1.9;1.8;;;;;;;13.63;100;94500.67;;;;
2021/08/06 03:56:39;;;;;;;1.9;1.8;;;;;;;13.63;100;94500.67;;;;
2021/08/06 03:57:40;;;;;;;3.199999;2.2;;;;;;;13.76;100;94515.44;;;;
2021/08/06 03:58:49;;;;;;;3.199999;2.2;;;;;;;13.76;100;94515.44;;;;
2021/08/06 03:59:50;;;;;;;3.199999;2.2;;;;;;;13.76;100;94515.44;;;;
2021/08/06 04:00:50;;;;;;;3.199999;2.2;;;;;;;13.76;100;94515.44;;;;
2021/08/06 04:01:51;;;;;;;3.199999;2.2;;;;;;;13.76;100;94515.44;;;;
2021/08/06 04:02:52;;;;;;;3.199999;2.2;;;;;;;13.76;100;94515.44;;;;
2021/08/06 04:03:53;;;;;;;3.199999;2.2;;;;;;;13.76;100;94515.44;;;;
2021/08/06 04:04:53;;;;;;;3.199999;2.2;;;;;;;13.76;100;94515.44;;;;
2021/08/06 04:05:54;;;;;;;3.199999;2.2;;;;;;;13.76;100;94515.44;;;;
2021/08/06 04:06:54;;;;;;;3.199999;2.2;;;;;;;13.76;100;94515.44;;;;
2021/08/06 04:07:55;;;;;;;2.2;1.9;;;;;;;13.9;100;94523.69;;;;
2021/08/06 04:08:55;;;;;;;2.2;1.9;;;;;;;13.9;100;94523.69;;;;
2021/08/06 04:09:56;;;;;;;2.2;1.9;;;;;;;13.9;100;94523.69;;;;
2021/08/06 04:10:56;;;;;;;2.2;1.9;;;;;;;13.9;100;94523.69;;;;
2021/08/06 04:11:57;;;;;;;2.2;1.9;;;;;;;13.9;100;94523.69;;;;
2021/08/06 04:12:58;;;;;;;2.2;1.9;;;;;;;13.9;100;94523.69;;;;
2021/08/06 04:13:58;;;;;;;2.2;1.9;;;;;;;13.9;100;94523.69;;;;
2021/08/06 04:14:59;;;;;;;2.2;1.9;;;;;;;13.9;100;94523.69;;;;
2021/08/06 04:15:59;;;;;;;2.2;1.9;;;;;;;13.9;100;94523.69;;;;
2021/08/06 04:17:00;;;;;;;2.2;1.9;;;;;;;13.9;100;94523.69;;;;
2021/08/06 04:18:00;;;;;;;2.2;1.9;;;;;;;13.9;100;94523.69;;;;
2021/08/06 04:19:01;;;;;;;2.1;1.9;;;;;;;14.03;100;94523.25;;;;
2021/08/06 04:20:01;;;;;;;2.1;1.9;;;;;;;14.03;100;94523.25;;;;
2021/08/06 04:21:03;;;;;;;2.1;1.9;;;;;;;14.03;100;94523.25;;;;
2021/08/06 04:22:03;;;;;;;2.1;1.9;;;;;;;14.03;100;94523.25;;;;
2021/08/06 04:23:04;;;;;;;2.1;1.9;;;;;;;14.03;100;94523.25;;;;
2021/08/06 04:24:04;;;;;;;2.1;1.9;;;;;;;14.03;100;94523.25;;;;
2021/08/06 04:25:05;;;;;;;2.1;1.9;;;;;;;14.03;100;94523.25;;;;
2021/08/06 04:26:07;;;;;;;2.1;1.9;;;;;;;14.03;100;94523.25;;;;
2021/08/06 04:27:08;;;;;;;2.1;1.9;;;;;;;14.03;100;94523.25;;;;
2021/08/06 04:28:09;;;;;;;2.1;1.9;;;;;;;14.03;100;94523.25;;;;
2021/08/06 04:29:09;;;;;;;4.400001;2;;;;;;;14.23;100;94514.06;;;;
2021/08/06 04:30:10;;;;;;;4.400001;2;;;;;;;14.23;100;94514.06;;;;
2021/08/06 04:31:12;;;;;;;4.400001;2;;;;;;;14.23;100;94514.06;;;;
2021/08/06 04:32:13;;;;;;;4.400001;2;;;;;;;14.23;100;94514.06;;;;
2021/08/06 04:33:13;;;;;;;4.400001;2;;;;;;;14.23;100;94514.06;;;;
2021/08/06 04:34:14;;;;;;;4.400001;2;;;;;;;14.23;100;94514.06;;;;
2021/08/06 04:35:14;;;;;;;4.400001;2;;;;;;;14.23;100;94514.06;;;;
2021/08/06 04:36:15;;;;;;;4.400001;2;;;;;;;14.23;100;94514.06;;;;
2021/08/06 04:37:15;;;;;;;4.400001;2;;;;;;;14.23;100;94514.06;;;;
2021/08/06 04:38:16;;;;;;;4.400001;2;;;;;;;14.23;100;94514.06;;;;
2021/08/06 04:39:16;;;;;;;4.400001;2;;;;;;;14.23;100;94514.06;;;;
2021/08/06 04:40:17;;;;;;;2.5;1.95;;;;;;;14.43;100;94512.66;;;;
2021/08/06 04:41:18;;;;;;;2.5;1.95;;;;;;;14.43;100;94512.66;;;;
2021/08/06 04:42:19;;;;;;;2.5;1.95;;;;;;;14.43;100;94512.66;;;;
2021/08/06 04:43:20;;;;;;;2.5;1.95;;;;;;;14.43;100;94512.66;;;;
2021/08/06 04:44:20;;;;;;;2.5;1.95;;;;;;;14.43;100;94512.66;;;;
2021/08/06 04:45:21;;;;;;;2.5;1.95;;;;;;;14.43;100;94512.66;;;;
2021/08/06 04:46:22;;;;;;;2.5;1.95;;;;;;;14.43;100;94512.66;;;;
2021/08/06 04:47:22;;;;;;;2.5;1.95;;;;;;;14.43;100;94512.66;;;;
2021/08/06 04:48:23;;;;;;;2.5;1.95;;;;;;;14.43;100;94512.66;;;;
2021/08/06 04:49:24;;;;;;;2.5;1.95;;;;;;;14.43;100;94512.66;;;;
2021/08/06 04:50:24;;;;;;;2.1;1.9;;;;;;;14.68;100;94503.98;;;;
2021/08/06 04:51:24;;;;;;;2.1;1.9;;;;;;;14.68;100;94503.98;;;;
2021/08/06 04:52:25;;;;;;;2.1;1.9;;;;;;;14.68;100;94503.98;;;;
2021/08/06 04:53:26;;;;;;;2.1;1.9;;;;;;;14.68;100;94503.98;;;;
2021/08/06 04:54:26;;;;;;;2.1;1.9;;;;;;;14.68;100;94503.98;;;;
2021/08/06 04:55:27;;;;;;;2.1;1.9;;;;;;;14.68;100;94503.98;;;;
2021/08/06 04:56:28;;;;;;;2.1;1.9;;;;;;;14.68;100;94503.98;;;;
2021/08/06 04:57:28;;;;;;;2.1;1.9;;;;;;;14.68;100;94503.98;;;;
2021/08/06 04:58:29;;;;;;;2.1;1.9;;;;;;;14.68;100;94503.98;;;;
2021/08/06 04:59:29;;;;;;;2.1;1.9;;;;;;;14.68;100;94503.98;;;;
2021/08/06 05:00:30;;;;;;;2.1;1.9;;;;;;;14.68;100;94503.98;;;;
2021/08/06 05:01:31;;;;;;;2.5;2.1;;;;;;;14.98;100;94495.25;;;;
2021/08/06 05:02:32;;;;;;;2.5;2.1;;;;;;;14.98;100;94495.25;;;;
2021/08/06 05:03:32;;;;;;;2.5;2.1;;;;;;;14.98;100;94495.25;;;;
2021/08/06 05:04:33;;;;;;;2.5;2.1;;;;;;;14.98;100;94495.25;;;;
2021/08/06 05:05:34;;;;;;;2.5;2.1;;;;;;;14.98;100;94495.25;;;;
2021/08/06 05:06:34;;;;;;;2.5;2.1;;;;;;;14.98;100;94495.25;;;;
2021/08/06 05:07:35;;;;;;;2.5;2.1;;;;;;;14.98;100;94495.25;;;;
2021/08/06 05:08:38;;;;;;;2.5;2.1;;;;;;;14.98;100;94495.25;;;;
2021/08/06 05:09:39;;;;;;;2.5;2.1;;;;;;;14.98;100;94495.25;;;;
2021/08/06 05:10:39;;;;;;;2.5;2.1;;;;;;;14.98;100;94495.25;;;;
2021/08/06 05:11:40;;;;;;;2.3;2.05;;;;;;;15.17;100;94497.02;;;;
2021/08/06 05:12:40;;;;;;;2.3;2.05;;;;;;;15.17;100;94497.02;;;;
2021/08/06 05:13:41;;;;;;;2.3;2.05;;;;;;;15.17;100;94497.02;;;;
2021/08/06 05:14:41;;;;;;;2.3;2.05;;;;;;;15.17;100;94497.02;;;;
2021/08/06 05:15:42;;;;;;;2.3;2.05;;;;;;;15.17;100;94497.02;;;;
2021/08/06 05:16:42;;;;;;;2.3;2.05;;;;;;;15.17;100;94497.02;;;;
2021/08/06 05:17:43;;;;;;;2.3;2.05;;;;;;;15.17;100;94497.02;;;;
2021/08/06 05:18:43;;;;;;;2.3;2.05;;;;;;;15.17;100;94497.02;;;;
2021/08/06 05:19:44;;;;;;;2.3;2.05;;;;;;;15.17;100;94497.02;;;;
2021/08/06 05:20:44;;;;;;;2.3;2.05;;;;;;;15.17;100;94497.02;;;;
2021/08/06 05:21:45;;;;;;;2.3;2.05;;;;;;;15.17;100;94497.02;;;;
2021/08/06 05:22:45;;;;;;;3.05;2.1;;;;;;;15.35;100;94497.28;;;;
2021/08/06 05:23:46;;;;;;;3.05;2.1;;;;;;;15.35;100;94497.28;;;;
2021/08/06 05:24:46;;;;;;;3.05;2.1;;;;;;;15.35;100;94497.28;;;;
2021/08/06 05:25:47;;;;;;;3.05;2.1;;;;;;;15.35;100;94497.28;;;;
2021/08/06 05:26:48;;;;;;;3.05;2.1;;;;;;;15.35;100;94497.28;;;;
2021/08/06 05:27:49;;;;;;;3.05;2.1;;;;;;;15.35;100;94497.28;;;;
2021/08/06 05:28:49;;;;;;;3.05;2.1;;;;;;;15.35;100;94497.28;;;;
2021/08/06 05:29:50;;;;;;;3.05;2.1;;;;;;;15.35;100;94497.28;;;;
2021/08/06 05:30:50;;;;;;;3.05;2.1;;;;;;;15.35;100;94497.28;;;;
2021/08/06 05:31:51;;;;;;;3.05;2.1;;;;;;;15.35;100;94497.28;;;;
2021/08/06 05:32:51;;;;;;;3.05;2.1;;;;;;;15.35;100;94497.28;;;;
2021/08/06 05:33:52;;;;;;;2.2;2;;;;;;;15.59;100;94501.87;;;;
2021/08/06 05:34:53;;;;;;;2.2;2;;;;;;;15.59;100;94501.87;;;;
2021/08/06 05:35:53;;;;;;;2.2;2;;;;;;;15.59;100;94501.87;;;;
2021/08/06 05:36:54;;;;;;;2.2;2;;;;;;;15.59;100;94501.87;;;;
2021/08/06 05:37:54;;;;;;;2.2;2;;;;;;;15.59;100;94501.87;;;;
2021/08/06 05:38:55;;;;;;;2.2;2;;;;;;;15.59;100;94501.87;;;;
2021/08/06 05:39:55;;;;;;;2.2;2;;;;;;;15.59;100;94501.87;;;;
2021/08/06 05:40:56;;;;;;;2.2;2;;;;;;;15.59;100;94501.87;;;;
2021/08/06 05:41:56;;;;;;;2.2;2;;;;;;;15.59;100;94501.87;;;;
2021/08/06 05:42:57;;;;;;;2.2;2;;;;;;;15.59;100;94501.87;;;;
2021/08/06 05:43:57;;;;;;;2.7;2.2;;;;;;;15.82;100;94500.7;;;;
2021/08/06 05:44:58;;;;;;;2.7;2.2;;;;;;;15.82;100;94500.7;;;;
2021/08/06 05:45:58;;;;;;;2.7;2.2;;;;;;;15.82;100;94500.7;;;;
2021/08/06 05:46:59;;;;;;;2.7;2.2;;;;;;;15.82;100;94500.7;;;;
2021/08/06 05:47:59;;;;;;;2.7;2.2;;;;;;;15.82;100;94500.7;;;;
2021/08/06 05:49:00;;;;;;;2.7;2.2;;;;;;;15.82;100;94500.7;;;;
2021/08/06 05:50:00;;;;;;;2.7;2.2;;;;;;;15.82;100;94500.7;;;;
2021/08/06 05:51:01;;;;;;;2.7;2.2;;;;;;;15.82;100;94500.7;;;;
2021/08/06 05:52:02;;;;;;;2.7;2.2;;;;;;;15.82;100;94500.7;;;;
2021/08/06 05:53:03;;;;;;;2.7;2.2;;;;;;;15.82;100;94500.7;;;;
2021/08/06 05:54:04;;;;;;;2.7;2.2;;;;;;;15.82;100;94500.7;;;;
2021/08/06 05:55:04;;;;;;;2.5;2.3;;;;;;;16.18;100;94496.1;;;;
2021/08/06 05:56:05;;;;;;;2.5;2.3;;;;;;;16.18;100;94496.1;;;;
2021/08/06 05:57:06;;;;;;;2.5;2.3;;;;;;;16.18;100;94496.1;;;;
2021/08/06 05:58:06;;;;;;;2.5;2.3;;;;;;;16.18;100;94496.1;;;;
2021/08/06 05:59:07;;;;;;;2.5;2.3;;;;;;;16.18;100;94496.1;;;;
2021/08/06 06:00:07;;;;;;;2.5;2.3;;;;;;;16.18;100;94496.1;;;;
2021/08/06 06:01:11;;;;;;;2.5;2.3;;;;;;;16.18;100;94496.1;;;;
2021/08/06 06:02:11;;;;;;;2.5;2.3;;;;;;;16.18;100;94496.1;;;;
2021/08/06 06:03:12;;;;;;;2.5;2.3;;;;;;;16.18;100;94496.1;;;;
2021/08/06 06:04:13;;;;;;;2.5;2.3;;;;;;;16.18;100;94496.1;;;;
2021/08/06 06:05:13;;;;;;;2.5;2.3;;;;;;;16.18;100;94496.1;;;;
2021/08/06 06:06:14;;;;;;;2.5;2.3;;;;;;;16.18;100;94496.1;;;;
2021/08/06 06:07:14;;;;;;;2.5;2.3;;;;;;;16.18;100;94496.1;;;;
2021/08/06 06:08:15;;;;;;;2.5;2.3;;;;;;;16.18;100;94496.1;;;;
2021/08/06 06:09:16;;;;;;;2.5;2.3;;;;;;;16.18;100;94496.1;;;;
2021/08/06 06:10:16;;;;;;;2.5;2.3;;;;;;;16.18;100;94496.1;;;;
2021/08/06 06:11:19;;;;;;;2.5;2.3;;;;;;;16.18;100;94496.1;;;;
2021/08/06 06:12:20;;;;;;;2.5;2.3;;;;;;;16.18;100;94496.1;;;;
2021/08/06 06:13:21;;;;;;;2.5;2.3;;;;;;;16.18;100;94496.1;;;;
2021/08/06 06:14:21;;;;;;;2.5;2.3;;;;;;;16.18;100;94496.1;;;;
2021/08/06 06:15:21;;;;;;;2.5;2.3;;;;;;;16.18;100;94496.1;;;;
2021/08/06 06:16:22;;;;;;;2.900001;2.1;;;;;;;17.5;100;94486.42;;;;
2021/08/06 06:17:23;;;;;;;2.900001;2.1;;;;;;;17.5;100;94486.42;;;;
2021/08/06 06:18:23;;;;;;;2.900001;2.1;;;;;;;17.5;100;94486.42;;;;
2021/08/06 06:19:24;;;;;;;2.900001;2.1;;;;;;;17.5;100;94486.42;;;;
2021/08/06 06:20:24;;;;;;;2.900001;2.1;;;;;;;17.5;100;94486.42;;;;